sensor_id;sensor_type;location;lat;lon;timestamp;pressure;altitude;pressure_sealevel;temperature;humidity
24762;BME280;12865;51.934;10.330;2022-09-03T00:00:24;99198.78;;;12.84;80.93
24762;BME280;12865;51.934;10.330;2022-09-03T00:04:01;99194.31;;;12.67;81.43
24762;BME280;12865;51.934;10.330;2022-09-03T00:06:42;99179.69;;;12.62;81.51
24762;BME280;12865;51.934;10.330;2022-09-03T00:09:39;99181.25;;;12.46;83.94
24762;BME280;12865;51.934;10.330;2022-09-03T00:12:31;99170.06;;;12.51;83.51
24762;BME280;12865;51.934;10.330;2022-09-03T00:15:20;99167.16;;;12.44;82.89
24762;BME280;12865;51.934;10.330;2022-09-03T00:18:14;99175.72;;;12.48;82.68
24762;BME280;12865;51.934;10.330;2022-09-03T00:21:05;99175.47;;;12.41;82.90
24762;BME280;12865;51.934;10.330;2022-09-03T00:23:54;99175.16;;;12.27;84.73
24762;BME280;12865;51.934;10.330;2022-09-03T00:26:43;99174.03;;;12.29;84.55
24762;BME280;12865;51.934;10.330;2022-09-03T00:32:07;99181.97;;;12.21;84.60
24762;BME280;12865;51.934;10.330;2022-09-03T00:35:00;99181.59;;;12.16;84.59
24762;BME280;12865;51.934;10.330;2022-09-03T00:37:47;99175.31;;;12.07;84.88
24762;BME280;12865;51.934;10.330;2022-09-03T00:40:49;99174.69;;;11.96;85.12
24762;BME280;12865;51.934;10.330;2022-09-03T00:46:57;99176.38;;;11.97;86.07
24762;BME280;12865;51.934;10.330;2022-09-03T01:05:55;99157.00;;;11.85;87.53
24762;BME280;12865;51.934;10.330;2022-09-03T01:12:20;99160.31;;;11.69;87.98
24762;BME280;12865;51.934;10.330;2022-09-03T01:21:23;99171.50;;;11.55;90.34
24762;BME280;12865;51.934;10.330;2022-09-03T01:30:28;99163.16;;;11.58;90.33
24762;BME280;12865;51.934;10.330;2022-09-03T01:33:36;99174.53;;;11.70;90.79
24762;BME280;12865;51.934;10.330;2022-09-03T01:42:33;99178.91;;;11.61;90.62
24762;BME280;12865;51.934;10.330;2022-09-03T01:45:27;99180.16;;;11.57;91.36
24762;BME280;12865;51.934;10.330;2022-09-03T01:48:44;99182.84;;;11.57;91.16
24762;BME280;12865;51.934;10.330;2022-09-03T01:51:34;99181.50;;;11.43;91.04
24762;BME280;12865;51.934;10.330;2022-09-03T01:57:47;99178.16;;;11.32;95.36
24762;BME280;12865;51.934;10.330;2022-09-03T02:00:37;99173.09;;;11.38;93.24
24762;BME280;12865;51.934;10.330;2022-09-03T02:03:25;99166.13;;;11.28;93.47
24762;BME280;12865;51.934;10.330;2022-09-03T02:06:18;99175.50;;;11.32;93.47
24762;BME280;12865;51.934;10.330;2022-09-03T02:09:05;99183.06;;;11.36;94.01
24762;BME280;12865;51.934;10.330;2022-09-03T02:12:07;99170.03;;;11.24;95.75
24762;BME280;12865;51.934;10.330;2022-09-03T02:14:54;99171.72;;;11.25;94.78
24762;BME280;12865;51.934;10.330;2022-09-03T02:17:41;99177.94;;;11.16;94.43
24762;BME280;12865;51.934;10.330;2022-09-03T02:20:29;99176.94;;;11.17;95.53
24762;BME280;12865;51.934;10.330;2022-09-03T02:23:15;99176.16;;;11.07;98.12
24762;BME280;12865;51.934;10.330;2022-09-03T02:26:02;99171.59;;;11.17;96.85
24762;BME280;12865;51.934;10.330;2022-09-03T02:28:49;99166.28;;;11.17;96.35
24762;BME280;12865;51.934;10.330;2022-09-03T02:31:35;99173.75;;;11.13;96.58
24762;BME280;12865;51.934;10.330;2022-09-03T02:34:21;99168.22;;;11.15;96.14
24762;BME280;12865;51.934;10.330;2022-09-03T02:37:15;99175.84;;;11.10;96.79
24762;BME280;12865;51.934;10.330;2022-09-03T02:40:02;99170.94;;;11.05;97.35
24762;BME280;12865;51.934;10.330;2022-09-03T02:42:53;99172.78;;;11.05;98.14
24762;BME280;12865;51.934;10.330;2022-09-03T02:45:44;99165.47;;;11.07;97.73
24762;BME280;12865;51.934;10.330;2022-09-03T02:48:31;99176.28;;;11.05;96.66
24762;BME280;12865;51.934;10.330;2022-09-03T02:51:17;99178.97;;;10.95;98.99
24762;BME280;12865;51.934;10.330;2022-09-03T02:54:03;99174.31;;;10.97;98.45
24762;BME280;12865;51.934;10.330;2022-09-03T02:56:49;99172.50;;;10.98;98.02
24762;BME280;12865;51.934;10.330;2022-09-03T02:59:36;99176.03;;;10.89;97.36
24762;BME280;12865;51.934;10.330;2022-09-03T03:02:22;99176.88;;;10.89;98.28
24762;BME280;12865;51.934;10.330;2022-09-03T03:05:10;99175.31;;;10.96;97.91
24762;BME280;12865;51.934;10.330;2022-09-03T03:07:59;99172.66;;;10.96;98.54
24762;BME280;12865;51.934;10.330;2022-09-03T03:10:46;99173.63;;;10.95;98.25
24762;BME280;12865;51.934;10.330;2022-09-03T03:13:33;99175.31;;;10.87;99.78
24762;BME280;12865;51.934;10.330;2022-09-03T03:16:19;99174.19;;;10.80;98.33
24762;BME280;12865;51.934;10.330;2022-09-03T03:19:05;99170.59;;;10.71;99.14
24762;BME280;12865;51.934;10.330;2022-09-03T03:21:50;99164.53;;;10.59;97.98
24762;BME280;12865;51.934;10.330;2022-09-03T03:24:36;99168.34;;;10.57;98.71
24762;BME280;12865;51.934;10.330;2022-09-03T03:27:22;99162.88;;;10.49;98.66
24762;BME280;12865;51.934;10.330;2022-09-03T03:30:09;99162.16;;;10.47;99.25
24762;BME280;12865;51.934;10.330;2022-09-03T03:32:55;99161.44;;;10.45;99.24
24762;BME280;12865;51.934;10.330;2022-09-03T03:35:41;99156.16;;;10.35;98.82
24762;BME280;12865;51.934;10.330;2022-09-03T03:38:27;99163.84;;;10.29;99.42
24762;BME280;12865;51.934;10.330;2022-09-03T03:41:19;99169.88;;;10.31;99.63
24762;BME280;12865;51.934;10.330;2022-09-03T03:44:07;99177.72;;;10.32;99.49
24762;BME280;12865;51.934;10.330;2022-09-03T03:46:53;99172.13;;;10.26;100.00
24762;BME280;12865;51.934;10.330;2022-09-03T03:49:38;99175.19;;;10.21;99.67
24762;BME280;12865;51.934;10.330;2022-09-03T03:52:25;99172.91;;;10.16;99.20
24762;BME280;12865;51.934;10.330;2022-09-03T03:55:10;99174.63;;;10.17;99.60
24762;BME280;12865;51.934;10.330;2022-09-03T03:57:57;99174.34;;;10.20;99.79
24762;BME280;12865;51.934;10.330;2022-09-03T04:00:43;99179.09;;;10.17;99.52
24762;BME280;12865;51.934;10.330;2022-09-03T04:03:29;99174.03;;;10.14;99.92
24762;BME280;12865;51.934;10.330;2022-09-03T04:06:17;99168.41;;;10.07;100.00
24762;BME280;12865;51.934;10.330;2022-09-03T04:09:03;99172.63;;;10.00;100.00
24762;BME280;12865;51.934;10.330;2022-09-03T04:11:49;99166.03;;;10.04;100.00
24762;BME280;12865;51.934;10.330;2022-09-03T04:14:35;99174.59;;;10.08;100.00
24762;BME280;12865;51.934;10.330;2022-09-03T04:17:20;99169.81;;;10.11;100.00
24762;BME280;12865;51.934;10.330;2022-09-03T04:20:06;99173.19;;;10.13;100.00
24762;BME280;12865;51.934;10.330;2022-09-03T04:22:52;99172.06;;;10.06;100.00
24762;BME280;12865;51.934;10.330;2022-09-03T04:25:38;99164.88;;;9.97;100.00
24762;BME280;12865;51.934;10.330;2022-09-03T04:28:26;99172.88;;;9.97;100.00
24762;BME280;12865;51.934;10.330;2022-09-03T04:31:13;99167.13;;;9.92;100.00
24762;BME280;12865;51.934;10.330;2022-09-03T04:33:59;99170.34;;;9.96;100.00
24762;BME280;12865;51.934;10.330;2022-09-03T04:36:45;99165.31;;;10.02;100.00
24762;BME280;12865;51.934;10.330;2022-09-03T04:39:32;99159.31;;;10.00;100.00
24762;BME280;12865;51.934;10.330;2022-09-03T04:42:17;99164.63;;;10.00;100.00
24762;BME280;12865;51.934;10.330;2022-09-03T04:45:04;99167.16;;;10.02;100.00
24762;BME280;12865;51.934;10.330;2022-09-03T04:48:00;99158.84;;;9.95;100.00
24762;BME280;12865;51.934;10.330;2022-09-03T04:50:46;99161.09;;;9.90;100.00
24762;BME280;12865;51.934;10.330;2022-09-03T04:53:33;99156.59;;;9.81;100.00
24762;BME280;12865;51.934;10.330;2022-09-03T04:56:21;99169.59;;;9.74;100.00
24762;BME280;12865;51.934;10.330;2022-09-03T04:59:08;99166.63;;;9.68;100.00
24762;BME280;12865;51.934;10.330;2022-09-03T05:01:54;99156.28;;;9.65;100.00
24762;BME280;12865;51.934;10.330;2022-09-03T05:04:41;99165.09;;;9.75;100.00
24762;BME280;12865;51.934;10.330;2022-09-03T05:07:27;99167.25;;;9.81;100.00
24762;BME280;12865;51.934;10.330;2022-09-03T05:10:13;99169.50;;;9.85;100.00
24762;BME280;12865;51.934;10.330;2022-09-03T05:13:04;99170.06;;;9.89;100.00
24762;BME280;12865;51.934;10.330;2022-09-03T05:15:50;99161.66;;;10.03;100.00
24762;BME280;12865;51.934;10.330;2022-09-03T05:18:36;99162.66;;;10.02;100.00
24762;BME280;12865;51.934;10.330;2022-09-03T05:21:22;99162.25;;;10.16;100.00
24762;BME280;12865;51.934;10.330;2022-09-03T05:24:08;99160.47;;;10.27;100.00
24762;BME280;12865;51.934;10.330;2022-09-03T05:26:55;99166.53;;;10.29;100.00
24762;BME280;12865;51.934;10.330;2022-09-03T05:29:42;99164.69;;;10.29;100.00
24762;BME280;12865;51.934;10.330;2022-09-03T05:32:29;99152.63;;;10.35;100.00
24762;BME280;12865;51.934;10.330;2022-09-03T05:35:15;99162.47;;;10.44;100.00
24762;BME280;12865;51.934;10.330;2022-09-03T05:38:01;99159.38;;;10.48;100.00
24762;BME280;12865;51.934;10.330;2022-09-03T05:40:46;99160.91;;;10.60;100.00
24762;BME280;12865;51.934;10.330;2022-09-03T05:43:33;99166.78;;;10.74;100.00
24762;BME280;12865;51.934;10.330;2022-09-03T05:46:20;99163.81;;;10.86;100.00
24762;BME280;12865;51.934;10.330;2022-09-03T05:49:06;99156.19;;;11.01;100.00
24762;BME280;12865;51.934;10.330;2022-09-03T05:51:52;99158.00;;;11.10;100.00
24762;BME280;12865;51.934;10.330;2022-09-03T05:54:38;99165.00;;;11.21;100.00
24762;BME280;12865;51.934;10.330;2022-09-03T05:57:23;99161.56;;;11.38;100.00
24762;BME280;12865;51.934;10.330;2022-09-03T06:00:10;99171.31;;;11.57;100.00
24762;BME280;12865;51.934;10.330;2022-09-03T06:02:56;99172.13;;;11.76;100.00
24762;BME280;12865;51.934;10.330;2022-09-03T06:05:52;99171.78;;;11.89;100.00
24762;BME280;12865;51.934;10.330;2022-09-03T06:08:39;99176.28;;;12.06;99.30
24762;BME280;12865;51.934;10.330;2022-09-03T06:11:27;99170.16;;;12.24;100.00
24762;BME280;12865;51.934;10.330;2022-09-03T06:14:14;99167.78;;;12.38;96.46
24762;BME280;12865;51.934;10.330;2022-09-03T06:17:00;99167.41;;;12.51;93.49
24762;BME280;12865;51.934;10.330;2022-09-03T06:19:46;99165.03;;;12.66;92.90
24762;BME280;12865;51.934;10.330;2022-09-03T06:22:32;99167.00;;;12.81;91.01
24762;BME280;12865;51.934;10.330;2022-09-03T06:25:18;99163.44;;;12.98;90.53
24762;BME280;12865;51.934;10.330;2022-09-03T06:28:04;99156.75;;;13.20;88.41
24762;BME280;12865;51.934;10.330;2022-09-03T06:30:56;99164.47;;;13.49;86.89
24762;BME280;12865;51.934;10.330;2022-09-03T06:33:43;99156.66;;;13.64;85.14
24762;BME280;12865;51.934;10.330;2022-09-03T06:36:29;99161.47;;;13.94;84.04
24762;BME280;12865;51.934;10.330;2022-09-03T06:39:14;99161.31;;;14.04;82.93
24762;BME280;12865;51.934;10.330;2022-09-03T06:42:00;99162.38;;;14.19;81.97
24762;BME280;12865;51.934;10.330;2022-09-03T06:44:46;99159.88;;;14.34;83.92
24762;BME280;12865;51.934;10.330;2022-09-03T06:47:32;99163.66;;;14.57;82.05
24762;BME280;12865;51.934;10.330;2022-09-03T06:50:18;99164.97;;;15.02;79.74
24762;BME280;12865;51.934;10.330;2022-09-03T06:53:04;99158.75;;;15.17;78.32
24762;BME280;12865;51.934;10.330;2022-09-03T06:55:59;99161.09;;;15.20;77.85
24762;BME280;12865;51.934;10.330;2022-09-03T06:58:46;99155.28;;;15.64;75.94
24762;BME280;12865;51.934;10.330;2022-09-03T07:01:34;99162.47;;;15.71;74.95
24762;BME280;12865;51.934;10.330;2022-09-03T07:04:20;99162.66;;;16.09;73.51
24762;BME280;12865;51.934;10.330;2022-09-03T07:07:06;99167.28;;;16.23;72.18
24762;BME280;12865;51.934;10.330;2022-09-03T07:09:57;99159.41;;;16.44;71.33
24762;BME280;12865;51.934;10.330;2022-09-03T07:12:43;99167.44;;;16.53;71.23
24762;BME280;12865;51.934;10.330;2022-09-03T07:15:28;99164.16;;;16.88;68.80
24762;BME280;12865;51.934;10.330;2022-09-03T07:18:14;99166.97;;;16.95;68.77
24762;BME280;12865;51.934;10.330;2022-09-03T07:21:02;99170.41;;;17.03;69.56
24762;BME280;12865;51.934;10.330;2022-09-03T07:23:49;99168.91;;;17.23;67.11
24762;BME280;12865;51.934;10.330;2022-09-03T07:26:38;99171.88;;;17.43;66.20
24762;BME280;12865;51.934;10.330;2022-09-03T07:29:24;99166.09;;;17.46;65.89
24762;BME280;12865;51.934;10.330;2022-09-03T07:32:10;99152.94;;;17.51;65.19
24762;BME280;12865;51.934;10.330;2022-09-03T07:34:55;99159.66;;;17.70;65.35
24762;BME280;12865;51.934;10.330;2022-09-03T07:37:42;99154.16;;;17.63;64.86
24762;BME280;12865;51.934;10.330;2022-09-03T07:40:28;99159.06;;;17.89;64.75
24762;BME280;12865;51.934;10.330;2022-09-03T07:43:14;99149.28;;;17.88;64.34
24762;BME280;12865;51.934;10.330;2022-09-03T07:45:59;99153.88;;;18.24;63.17
24762;BME280;12865;51.934;10.330;2022-09-03T07:48:45;99162.81;;;18.24;62.51
24762;BME280;12865;51.934;10.330;2022-09-03T07:51:34;99153.50;;;18.27;62.73
24762;BME280;12865;51.934;10.330;2022-09-03T07:54:20;99157.06;;;18.49;61.75
24762;BME280;12865;51.934;10.330;2022-09-03T07:57:07;99151.50;;;18.71;61.09
24762;BME280;12865;51.934;10.330;2022-09-03T07:59:54;99151.81;;;18.83;60.77
24762;BME280;12865;51.934;10.330;2022-09-03T08:02:40;99156.22;;;18.84;61.93
24762;BME280;12865;51.934;10.330;2022-09-03T08:05:25;99150.97;;;19.04;60.29
24762;BME280;12865;51.934;10.330;2022-09-03T08:08:11;99153.53;;;19.12;59.09
24762;BME280;12865;51.934;10.330;2022-09-03T08:11:08;99153.13;;;19.15;59.47
24762;BME280;12865;51.934;10.330;2022-09-03T08:14:01;99153.25;;;19.35;58.35
24762;BME280;12865;51.934;10.330;2022-09-03T08:16:47;99149.38;;;19.44;58.45
24762;BME280;12865;51.934;10.330;2022-09-03T08:19:33;99159.72;;;19.62;57.84
24762;BME280;12865;51.934;10.330;2022-09-03T08:22:18;99152.81;;;19.52;58.06
24762;BME280;12865;51.934;10.330;2022-09-03T08:25:07;99146.78;;;19.57;58.29
24762;BME280;12865;51.934;10.330;2022-09-03T08:27:53;99147.03;;;19.62;57.38
24762;BME280;12865;51.934;10.330;2022-09-03T08:30:38;99147.44;;;20.07;57.21
24762;BME280;12865;51.934;10.330;2022-09-03T08:33:24;99145.09;;;20.38;54.89
24762;BME280;12865;51.934;10.330;2022-09-03T08:36:24;99135.78;;;20.67;54.66
24762;BME280;12865;51.934;10.330;2022-09-03T08:39:12;99149.09;;;20.62;53.52
24762;BME280;12865;51.934;10.330;2022-09-03T08:45:06;99141.22;;;20.93;52.90
24762;BME280;12865;51.934;10.330;2022-09-03T08:48:04;99143.28;;;21.24;51.46
24762;BME280;12865;51.934;10.330;2022-09-03T08:50:53;99131.63;;;21.37;51.01
24762;BME280;12865;51.934;10.330;2022-09-03T08:53:50;99143.47;;;21.55;51.72
24762;BME280;12865;51.934;10.330;2022-09-03T08:56:41;99138.19;;;21.74;49.94
24762;BME280;12865;51.934;10.330;2022-09-03T08:59:29;99149.25;;;21.85;49.05
24762;BME280;12865;51.934;10.330;2022-09-03T09:02:25;99142.47;;;22.08;48.09
24762;BME280;12865;51.934;10.330;2022-09-03T09:05:23;99139.75;;;22.08;48.56
24762;BME280;12865;51.934;10.330;2022-09-03T09:14:42;99133.44;;;22.27;46.67
24762;BME280;12865;51.934;10.330;2022-09-03T09:17:48;99136.53;;;22.30;46.52
24762;BME280;12865;51.934;10.330;2022-09-03T09:20:53;99137.81;;;22.28;46.58
24762;BME280;12865;51.934;10.330;2022-09-03T09:23:48;99133.13;;;22.42;46.90
24762;BME280;12865;51.934;10.330;2022-09-03T09:26:34;99133.53;;;22.45;46.51
24762;BME280;12865;51.934;10.330;2022-09-03T09:29:20;99137.00;;;22.59;45.43
24762;BME280;12865;51.934;10.330;2022-09-03T09:32:08;99122.56;;;22.58;45.42
24762;BME280;12865;51.934;10.330;2022-09-03T09:34:54;99123.97;;;22.67;45.60
24762;BME280;12865;51.934;10.330;2022-09-03T09:37:54;99123.13;;;22.74;45.27
24762;BME280;12865;51.934;10.330;2022-09-03T09:40:42;99116.75;;;22.55;45.64
24762;BME280;12865;51.934;10.330;2022-09-03T09:43:29;99117.47;;;22.75;43.74
24762;BME280;12865;51.934;10.330;2022-09-03T09:46:27;99114.34;;;22.40;44.59
24762;BME280;12865;51.934;10.330;2022-09-03T09:52:13;99112.25;;;22.42;44.79
24762;BME280;12865;51.934;10.330;2022-09-03T09:55:14;99121.03;;;23.00;43.71
24762;BME280;12865;51.934;10.330;2022-09-03T09:58:05;99118.97;;;22.96;42.34
24762;BME280;12865;51.934;10.330;2022-09-03T10:01:09;99112.25;;;22.74;42.57
24762;BME280;12865;51.934;10.330;2022-09-03T10:04:07;99117.59;;;22.55;42.05
24762;BME280;12865;51.934;10.330;2022-09-03T10:10:14;99096.22;;;22.59;42.67
24762;BME280;12865;51.934;10.330;2022-09-03T10:13:09;99099.44;;;22.81;43.23
24762;BME280;12865;51.934;10.330;2022-09-03T10:16:12;99097.44;;;23.19;41.38
24762;BME280;12865;51.934;10.330;2022-09-03T10:19:15;99099.09;;;22.95;41.24
24762;BME280;12865;51.934;10.330;2022-09-03T10:22:10;99109.47;;;22.80;41.48
24762;BME280;12865;51.934;10.330;2022-09-03T10:24:59;99099.31;;;22.94;41.81
24762;BME280;12865;51.934;10.330;2022-09-03T10:27:50;99113.66;;;22.83;40.10
24762;BME280;12865;51.934;10.330;2022-09-03T10:33:56;99097.50;;;22.88;40.25
24762;BME280;12865;51.934;10.330;2022-09-03T10:36:58;99097.22;;;22.96;40.26
24762;BME280;12865;51.934;10.330;2022-09-03T10:40:05;99087.28;;;23.08;39.50
24762;BME280;12865;51.934;10.330;2022-09-03T10:52:39;99089.28;;;22.94;38.92
24762;BME280;12865;51.934;10.330;2022-09-03T10:55:19;99079.34;;;22.82;40.33
24762;BME280;12865;51.934;10.330;2022-09-03T11:07:27;99077.44;;;23.32;38.22
24762;BME280;12865;51.934;10.330;2022-09-03T11:10:25;99071.94;;;23.75;37.70
24762;BME280;12865;51.934;10.330;2022-09-03T11:13:25;99073.28;;;24.02;36.27
24762;BME280;12865;51.934;10.330;2022-09-03T11:16:20;99062.41;;;24.14;37.13
24762;BME280;12865;51.934;10.330;2022-09-03T11:19:15;99064.00;;;24.21;35.49
24762;BME280;12865;51.934;10.330;2022-09-03T11:22:04;99062.03;;;24.29;35.99
24762;BME280;12865;51.934;10.330;2022-09-03T11:24:57;99060.47;;;24.33;35.69
24762;BME280;12865;51.934;10.330;2022-09-03T11:31:05;99049.19;;;24.59;35.70
24762;BME280;12865;51.934;10.330;2022-09-03T11:34:31;99052.91;;;24.35;35.63
24762;BME280;12865;51.934;10.330;2022-09-03T11:37:22;99052.47;;;24.38;35.73
24762;BME280;12865;51.934;10.330;2022-09-03T11:40:16;99053.59;;;24.72;35.47
24762;BME280;12865;51.934;10.330;2022-09-03T11:43:11;99053.66;;;24.95;34.48
24762;BME280;12865;51.934;10.330;2022-09-03T11:49:11;99055.50;;;24.83;34.66
24762;BME280;12865;51.934;10.330;2022-09-03T11:52:02;99044.31;;;24.61;35.09
24762;BME280;12865;51.934;10.330;2022-09-03T11:54:50;99044.09;;;24.62;34.88
24762;BME280;12865;51.934;10.330;2022-09-03T11:57:41;99035.56;;;24.59;34.93
24762;BME280;12865;51.934;10.330;2022-09-03T12:00:29;99050.69;;;25.08;33.93
24762;BME280;12865;51.934;10.330;2022-09-03T12:03:16;99043.28;;;24.85;33.86
24762;BME280;12865;51.934;10.330;2022-09-03T12:16:25;99044.75;;;24.99;33.76
24762;BME280;12865;51.934;10.330;2022-09-03T12:19:16;99037.34;;;24.88;34.32
24762;BME280;12865;51.934;10.330;2022-09-03T12:22:03;99039.25;;;24.76;34.03
24762;BME280;12865;51.934;10.330;2022-09-03T12:24:50;99038.00;;;25.14;33.90
24762;BME280;12865;51.934;10.330;2022-09-03T12:27:36;99044.13;;;24.86;33.44
24762;BME280;12865;51.934;10.330;2022-09-03T12:32:49;99031.91;;;25.23;33.49
24762;BME280;12865;51.934;10.330;2022-09-03T12:35:36;99037.38;;;25.35;34.11
24762;BME280;12865;51.934;10.330;2022-09-03T12:38:24;99041.38;;;25.56;33.30
24762;BME280;12865;51.934;10.330;2022-09-03T12:44:05;99034.00;;;25.56;32.91
24762;BME280;12865;51.934;10.330;2022-09-03T12:46:59;99025.97;;;25.38;32.52
24762;BME280;12865;51.934;10.330;2022-09-03T12:49:47;99035.22;;;25.60;32.64
24762;BME280;12865;51.934;10.330;2022-09-03T12:55:51;99015.13;;;25.66;32.52
24762;BME280;12865;51.934;10.330;2022-09-03T12:59:03;99019.66;;;25.61;33.14
24762;BME280;12865;51.934;10.330;2022-09-03T13:01:53;99018.00;;;25.88;32.17
24762;BME280;12865;51.934;10.330;2022-09-03T13:04:41;99022.13;;;26.02;33.05
24762;BME280;12865;51.934;10.330;2022-09-03T13:07:36;99012.53;;;26.00;31.78
24762;BME280;12865;51.934;10.330;2022-09-03T13:10:30;99018.75;;;25.84;32.23
24762;BME280;12865;51.934;10.330;2022-09-03T13:13:21;99013.78;;;25.80;31.77
24762;BME280;12865;51.934;10.330;2022-09-03T13:19:10;99013.75;;;25.40;32.27
24762;BME280;12865;51.934;10.330;2022-09-03T13:28:23;99023.72;;;25.87;31.75
24762;BME280;12865;51.934;10.330;2022-09-03T13:31:41;99016.31;;;25.70;31.46
24762;BME280;12865;51.934;10.330;2022-09-03T13:34:36;99013.44;;;25.77;31.86
24762;BME280;12865;51.934;10.330;2022-09-03T13:37:32;99018.59;;;25.38;32.53
24762;BME280;12865;51.934;10.330;2022-09-03T13:40:31;99007.06;;;25.60;32.62
24762;BME280;12865;51.934;10.330;2022-09-03T13:43:29;99008.38;;;25.57;32.02
24762;BME280;12865;51.934;10.330;2022-09-03T13:46:24;99015.03;;;25.61;33.10
24762;BME280;12865;51.934;10.330;2022-09-03T13:49:27;99018.97;;;25.30;33.00
24762;BME280;12865;51.934;10.330;2022-09-03T13:55:47;99019.88;;;25.71;31.81
24762;BME280;12865;51.934;10.330;2022-09-03T13:58:41;99012.16;;;25.56;32.26
24762;BME280;12865;51.934;10.330;2022-09-03T14:01:59;99009.66;;;25.78;31.71
24762;BME280;12865;51.934;10.330;2022-09-03T14:04:53;99002.56;;;25.54;32.19
24762;BME280;12865;51.934;10.330;2022-09-03T14:07:47;99009.94;;;25.93;31.55
24762;BME280;12865;51.934;10.330;2022-09-03T14:22:41;99008.50;;;25.51;32.43
24762;BME280;12865;51.934;10.330;2022-09-03T14:25:29;99014.53;;;25.53;32.07
24762;BME280;12865;51.934;10.330;2022-09-03T14:28:30;99014.84;;;25.79;31.67
24762;BME280;12865;51.934;10.330;2022-09-03T14:31:46;99011.09;;;25.57;32.39
24762;BME280;12865;51.934;10.330;2022-09-03T14:35:04;99005.94;;;25.84;31.39
24762;BME280;12865;51.934;10.330;2022-09-03T14:40:44;99009.66;;;25.78;31.40
24762;BME280;12865;51.934;10.330;2022-09-03T14:56:14;99028.72;;;25.26;32.17
24762;BME280;12865;51.934;10.330;2022-09-03T14:59:16;99023.81;;;25.40;32.14
24762;BME280;12865;51.934;10.330;2022-09-03T15:11:17;99016.75;;;25.16;32.41
24762;BME280;12865;51.934;10.330;2022-09-03T15:16:59;99015.53;;;25.35;32.35
24762;BME280;12865;51.934;10.330;2022-09-03T15:23:10;99021.47;;;25.32;31.69
24762;BME280;12865;51.934;10.330;2022-09-03T15:29:21;99023.63;;;25.07;32.86
24762;BME280;12865;51.934;10.330;2022-09-03T15:38:57;99036.41;;;25.41;32.41
24762;BME280;12865;51.934;10.330;2022-09-03T15:44:45;99026.81;;;25.27;32.56
24762;BME280;12865;51.934;10.330;2022-09-03T15:47:36;99028.59;;;25.10;32.75
24762;BME280;12865;51.934;10.330;2022-09-03T15:50:36;99025.72;;;24.81;33.24
24762;BME280;12865;51.934;10.330;2022-09-03T15:53:36;99024.19;;;24.74;33.12
24762;BME280;12865;51.934;10.330;2022-09-03T15:56:31;99019.78;;;24.61;34.18
24762;BME280;12865;51.934;10.330;2022-09-03T16:06:03;99033.38;;;24.08;34.48
24762;BME280;12865;51.934;10.330;2022-09-03T16:09:06;99027.63;;;23.98;34.91
24762;BME280;12865;51.934;10.330;2022-09-03T16:14:43;99033.22;;;23.73;35.35
24762;BME280;12865;51.934;10.330;2022-09-03T16:23:52;99030.97;;;23.52;35.82
24762;BME280;12865;51.934;10.330;2022-09-03T16:26:53;99041.16;;;23.38;35.38
24762;BME280;12865;51.934;10.330;2022-09-03T16:29:41;99036.69;;;23.25;35.78
24762;BME280;12865;51.934;10.330;2022-09-03T16:38:32;99043.13;;;22.88;36.28
24762;BME280;12865;51.934;10.330;2022-09-03T16:41:24;99032.53;;;22.80;36.56
24762;BME280;12865;51.934;10.330;2022-09-03T16:44:41;99035.59;;;22.90;36.30
24762;BME280;12865;51.934;10.330;2022-09-03T16:47:58;99037.06;;;22.86;36.83
24762;BME280;12865;51.934;10.330;2022-09-03T16:51:09;99040.97;;;22.65;36.52
24762;BME280;12865;51.934;10.330;2022-09-03T17:00:14;99038.94;;;22.60;36.53
24762;BME280;12865;51.934;10.330;2022-09-03T17:10:13;99052.19;;;22.50;37.14
24762;BME280;12865;51.934;10.330;2022-09-03T17:24:51;99050.81;;;22.03;38.31
24762;BME280;12865;51.934;10.330;2022-09-03T17:49:28;99067.13;;;21.39;39.89
24762;BME280;12865;51.934;10.330;2022-09-03T17:52:44;99058.84;;;21.21;40.25
24762;BME280;12865;51.934;10.330;2022-09-03T17:55:38;99057.78;;;21.28;40.65
24762;BME280;12865;51.934;10.330;2022-09-03T18:01:26;99061.94;;;21.11;41.04
24762;BME280;12865;51.934;10.330;2022-09-03T18:07:53;99068.03;;;20.87;41.66
24762;BME280;12865;51.934;10.330;2022-09-03T18:16:46;99089.09;;;20.71;42.51
24762;BME280;12865;51.934;10.330;2022-09-03T18:19:53;99088.66;;;20.68;42.65
24762;BME280;12865;51.934;10.330;2022-09-03T18:23:02;99082.19;;;20.56;43.34
24762;BME280;12865;51.934;10.330;2022-09-03T18:26:15;99093.66;;;20.45;44.05
24762;BME280;12865;51.934;10.330;2022-09-03T18:29:38;99087.09;;;20.26;44.79
24762;BME280;12865;51.934;10.330;2022-09-03T18:32:46;99097.69;;;20.08;45.45
24762;BME280;12865;51.934;10.330;2022-09-03T18:35:51;99091.22;;;19.95;46.16
24762;BME280;12865;51.934;10.330;2022-09-03T18:39:23;99099.88;;;19.84;46.67
24762;BME280;12865;51.934;10.330;2022-09-03T18:45:51;99092.97;;;19.69;47.71
24762;BME280;12865;51.934;10.330;2022-09-03T18:51:57;99114.94;;;19.52;48.41
24762;BME280;12865;51.934;10.330;2022-09-03T19:01:37;99114.84;;;19.11;49.83
24762;BME280;12865;51.934;10.330;2022-09-03T19:08:24;99123.09;;;19.03;49.56
24762;BME280;12865;51.934;10.330;2022-09-03T19:11:43;99117.41;;;18.92;50.19
24762;BME280;12865;51.934;10.330;2022-09-03T19:18:05;99133.78;;;18.62;51.30
24762;BME280;12865;51.934;10.330;2022-09-03T19:21:32;99129.34;;;18.40;52.01
24762;BME280;12865;51.934;10.330;2022-09-03T19:24:37;99131.66;;;18.22;53.44
24762;BME280;12865;51.934;10.330;2022-09-03T19:28:24;99129.63;;;18.09;52.99
24762;BME280;12865;51.934;10.330;2022-09-03T19:44:33;99135.84;;;17.59;54.07
24762;BME280;12865;51.934;10.330;2022-09-03T19:51:25;99144.00;;;17.36;55.46
24762;BME280;12865;51.934;10.330;2022-09-03T19:54:33;99137.00;;;17.12;57.16